EZY8605 EDDH-EGKK
Flight info
| Callsign | EZY8605 |
|---|---|
| Flight time | N/A |
| Altitude | 36000 |
| Route | WSN5G/33 WSN N125 ONTAZ DCT GALSO Q63 ARREK Y4 TEBRA |
| Aircraft | A320/M-SDE3FGHIRWY/LB1 |
Departure
| Time | 2026-05-06 15:47 |
|---|---|
| Airport | Hamburg Helmut Schmidt Airport (EDDH) |
Arrival
| Time | N/A |
|---|---|
| Airport | London Gatwick Airport (EGKK) |
| Time | Latitude | Longitude | Altitude | Speed | Heading |
|---|---|---|---|---|---|
| 2026-05-06 15:04 | 53.62744 | 9.99152 | 46 ft | 0 kts | 62° |
| 2026-05-06 15:32 | 53.62742 | 9.99143 | 46 ft | 4 kts | 63° |
| 2026-05-06 15:33 | 53.62731 | 9.99102 | 43 ft | 4 kts | 72° |
| 2026-05-06 15:33 | 53.62724 | 9.99058 | 42 ft | 4 kts | 90° |
| 2026-05-06 15:33 | 53.62730 | 9.99020 | 45 ft | 3 kts | 148° |
| 2026-05-06 15:33 | 53.62733 | 9.99016 | 46 ft | 0 kts | 156° |
| 2026-05-06 15:37 | 53.62692 | 9.99050 | 46 ft | 9 kts | 152° |
| 2026-05-06 15:37 | 53.62646 | 9.99092 | 46 ft | 13 kts | 152° |
| 2026-05-06 15:38 | 53.62581 | 9.99194 | 45 ft | 12 kts | 103° |
| 2026-05-06 15:38 | 53.62588 | 9.99329 | 45 ft | 11 kts | 79° |
| 2026-05-06 15:38 | 53.62603 | 9.99450 | 44 ft | 10 kts | 77° |
| 2026-05-06 15:38 | 53.62617 | 9.99556 | 44 ft | 9 kts | 78° |
| 2026-05-06 15:39 | 53.62627 | 9.99642 | 44 ft | 6 kts | 79° |
| 2026-05-06 15:39 | 53.62634 | 9.99698 | 44 ft | 3 kts | 79° |
| 2026-05-06 15:39 | 53.62636 | 9.99719 | 44 ft | 1 kts | 78° |
| 2026-05-06 15:44 | 53.62640 | 9.99751 | 42 ft | 6 kts | 78° |
| 2026-05-06 15:45 | 53.62664 | 9.99837 | 44 ft | 10 kts | 39° |
| 2026-05-06 15:45 | 53.62742 | 9.99847 | 46 ft | 13 kts | 340° |
| 2026-05-06 15:45 | 53.62823 | 9.99780 | 46 ft | 12 kts | 333° |
| 2026-05-06 15:45 | 53.62839 | 9.99766 | 46 ft | 0 kts | 332° |
| 2026-05-06 15:46 | 53.62909 | 9.99706 | 47 ft | 43 kts | 334° |
| 2026-05-06 15:46 | 53.63384 | 9.99291 | 50 ft | 108 kts | 334° |
| 2026-05-06 15:46 | 53.64213 | 9.98586 | 53 ft | 156 kts | 330° |
| 2026-05-06 15:47 | 53.65241 | 9.97719 | 517 ft | 164 kts | 337° |
| 2026-05-06 15:47 | 53.66258 | 9.96850 | 1319 ft | 163 kts | 337° |
| 2026-05-06 15:47 | 53.67247 | 9.95945 | 2039 ft | 160 kts | 337° |
| 2026-05-06 15:47 | 53.68200 | 9.95016 | 2730 ft | 157 kts | 336° |
| 2026-05-06 15:48 | 53.69168 | 9.94119 | 3235 ft | 165 kts | 341° |
| 2026-05-06 15:48 | 53.70273 | 9.93222 | 3506 ft | 188 kts | 339° |
| 2026-05-06 15:48 | 53.71301 | 9.91625 | 3739 ft | 222 kts | 300° |
| 2026-05-06 15:48 | 53.71522 | 9.88907 | 4043 ft | 252 kts | 264° |
| 2026-05-06 15:49 | 53.71105 | 9.85877 | 4465 ft | 276 kts | 253° |
| 2026-05-06 15:49 | 53.70459 | 9.82767 | 4912 ft | 284 kts | 249° |
| 2026-05-06 15:49 | 53.69753 | 9.79662 | 4992 ft | 283 kts | 249° |
| 2026-05-06 15:49 | 53.69050 | 9.76568 | 5004 ft | 282 kts | 249° |
| 2026-05-06 15:50 | 53.68371 | 9.73455 | 5005 ft | 282 kts | 250° |
| 2026-05-06 15:50 | 53.67718 | 9.70332 | 5012 ft | 282 kts | 251° |
| 2026-05-06 15:50 | 53.67083 | 9.67201 | 5009 ft | 282 kts | 251° |
| 2026-05-06 15:50 | 53.66461 | 9.64071 | 5007 ft | 282 kts | 252° |
| 2026-05-06 15:51 | 53.65843 | 9.60936 | 5007 ft | 282 kts | 252° |
| 2026-05-06 15:51 | 53.65117 | 9.57869 | 5006 ft | 282 kts | 242° |
| 2026-05-06 15:51 | 53.64045 | 9.55104 | 5008 ft | 282 kts | 233° |
| 2026-05-06 15:51 | 53.62894 | 9.52435 | 5003 ft | 282 kts | 233° |
| 2026-05-06 15:52 | 53.61744 | 9.49753 | 5011 ft | 282 kts | 233° |
| 2026-05-06 15:52 | 53.60598 | 9.47074 | 5003 ft | 282 kts | 233° |
| 2026-05-06 15:52 | 53.59453 | 9.44396 | 5005 ft | 281 kts | 233° |
| 2026-05-06 15:52 | 53.58306 | 9.41721 | 5010 ft | 282 kts | 233° |
| 2026-05-06 15:53 | 53.57146 | 9.39027 | 5557 ft | 285 kts | 233° |
| 2026-05-06 15:53 | 53.55982 | 9.36339 | 6537 ft | 285 kts | 233° |
| 2026-05-06 15:53 | 53.54808 | 9.33625 | 7420 ft | 288 kts | 234° |
| 2026-05-06 15:53 | 53.53626 | 9.30890 | 8305 ft | 291 kts | 234° |
| 2026-05-06 15:54 | 53.52432 | 9.28120 | 9179 ft | 294 kts | 235° |
| 2026-05-06 15:54 | 53.51224 | 9.25318 | 9722 ft | 297 kts | 235° |
| 2026-05-06 15:54 | 53.50024 | 9.22543 | 9856 ft | 300 kts | 235° |
| 2026-05-06 15:54 | 53.48735 | 9.19569 | 9890 ft | 325 kts | 234° |
| 2026-05-06 15:55 | 53.47415 | 9.16530 | 9888 ft | 325 kts | 234° |
| 2026-05-06 15:55 | 53.46098 | 9.13508 | 9892 ft | 323 kts | 234° |
| 2026-05-06 15:55 | 53.44768 | 9.10456 | 9892 ft | 327 kts | 234° |
| 2026-05-06 15:55 | 53.43438 | 9.07406 | 9892 ft | 326 kts | 234° |
| 2026-05-06 15:56 | 53.42108 | 9.04362 | 9890 ft | 325 kts | 234° |
| 2026-05-06 15:56 | 53.40771 | 9.01301 | 9894 ft | 326 kts | 234° |
| 2026-05-06 15:56 | 53.39445 | 8.98271 | 9890 ft | 323 kts | 234° |
| 2026-05-06 15:56 | 53.38123 | 8.95253 | 9887 ft | 322 kts | 234° |
| 2026-05-06 15:57 | 53.36795 | 8.92221 | 9889 ft | 322 kts | 234° |
| 2026-05-06 15:57 | 53.35474 | 8.89183 | 9878 ft | 319 kts | 236° |
| 2026-05-06 15:57 | 53.34379 | 8.85875 | 9887 ft | 327 kts | 248° |
| 2026-05-06 15:57 | 53.33585 | 8.82341 | 9887 ft | 318 kts | 251° |
| 2026-05-06 15:58 | 53.32814 | 8.78829 | 9906 ft | 319 kts | 251° |
| 2026-05-06 15:58 | 53.32048 | 8.75368 | 10389 ft | 324 kts | 251° |
| 2026-05-06 15:58 | 53.31246 | 8.71763 | 10973 ft | 336 kts | 250° |
| 2026-05-06 15:58 | 53.30424 | 8.68077 | 11720 ft | 341 kts | 250° |
| 2026-05-06 15:59 | 53.29593 | 8.64332 | 12493 ft | 346 kts | 250° |
| 2026-05-06 15:59 | 53.28760 | 8.60535 | 13234 ft | 350 kts | 250° |
| 2026-05-06 15:59 | 53.27919 | 8.56690 | 13937 ft | 354 kts | 250° |
| 2026-05-06 15:59 | 53.27070 | 8.52804 | 14601 ft | 357 kts | 250° |
| 2026-05-06 16:00 | 53.26219 | 8.48891 | 15317 ft | 359 kts | 251° |
| 2026-05-06 16:00 | 53.25423 | 8.44929 | 16043 ft | 361 kts | 252° |
| 2026-05-06 16:00 | 53.24683 | 8.40969 | 16752 ft | 362 kts | 253° |
| 2026-05-06 16:00 | 53.23950 | 8.36935 | 17433 ft | 364 kts | 253° |
| 2026-05-06 16:01 | 53.23210 | 8.32871 | 18103 ft | 367 kts | 252° |
| 2026-05-06 16:01 | 53.22457 | 8.28795 | 18693 ft | 369 kts | 252° |
| 2026-05-06 16:01 | 53.21689 | 8.24697 | 19273 ft | 371 kts | 252° |
| 2026-05-06 16:01 | 53.20907 | 8.20584 | 19840 ft | 373 kts | 252° |
| 2026-05-06 16:02 | 53.20114 | 8.16448 | 20400 ft | 375 kts | 252° |
| 2026-05-06 16:02 | 53.19317 | 8.12293 | 20941 ft | 378 kts | 252° |
| 2026-05-06 16:02 | 53.18519 | 8.08106 | 21471 ft | 380 kts | 252° |
| 2026-05-06 16:02 | 53.17725 | 8.03883 | 21996 ft | 383 kts | 253° |
| 2026-05-06 16:03 | 53.16929 | 7.99641 | 22522 ft | 385 kts | 253° |
| 2026-05-06 16:03 | 53.16125 | 7.95370 | 23038 ft | 387 kts | 253° |
| 2026-05-06 16:03 | 53.15313 | 7.91073 | 23539 ft | 390 kts | 253° |
| 2026-05-06 16:03 | 53.14492 | 7.86756 | 23958 ft | 392 kts | 252° |
| 2026-05-06 16:04 | 53.13665 | 7.82416 | 24371 ft | 394 kts | 252° |
| 2026-05-06 16:04 | 53.12837 | 7.78059 | 24779 ft | 396 kts | 252° |
| 2026-05-06 16:04 | 53.11998 | 7.73672 | 25187 ft | 398 kts | 252° |
| 2026-05-06 16:04 | 53.11149 | 7.69260 | 25585 ft | 401 kts | 252° |
| 2026-05-06 16:05 | 53.10295 | 7.64832 | 25980 ft | 403 kts | 252° |
| 2026-05-06 16:05 | 53.09434 | 7.60380 | 26369 ft | 405 kts | 251° |
| 2026-05-06 16:05 | 53.08569 | 7.55907 | 26739 ft | 407 kts | 251° |
| 2026-05-06 16:05 | 53.07700 | 7.51413 | 27119 ft | 410 kts | 251° |
| 2026-05-06 16:06 | 53.06822 | 7.46883 | 27483 ft | 412 kts | 251° |
| 2026-05-06 16:06 | 53.05937 | 7.42343 | 27856 ft | 414 kts | 251° |
| 2026-05-06 16:06 | 53.05046 | 7.37774 | 28217 ft | 417 kts | 251° |
| 2026-05-06 16:06 | 53.04148 | 7.33191 | 28583 ft | 419 kts | 251° |
| 2026-05-06 16:07 | 53.03238 | 7.28572 | 28923 ft | 421 kts | 250° |
| 2026-05-06 16:07 | 53.02323 | 7.23943 | 29281 ft | 423 kts | 250° |
| 2026-05-06 16:07 | 53.01261 | 7.19378 | 29625 ft | 424 kts | 243° |
| 2026-05-06 16:07 | 52.99971 | 7.14961 | 29956 ft | 426 kts | 243° |
| 2026-05-06 16:08 | 52.98670 | 7.10527 | 30244 ft | 428 kts | 243° |
| 2026-05-06 16:08 | 52.97360 | 7.06082 | 30539 ft | 429 kts | 243° |
| 2026-05-06 16:08 | 52.96049 | 7.01634 | 30825 ft | 430 kts | 243° |
| 2026-05-06 16:08 | 52.94730 | 6.97167 | 31111 ft | 432 kts | 242° |
| 2026-05-06 16:09 | 52.93405 | 6.92684 | 31424 ft | 432 kts | 242° |
| 2026-05-06 16:09 | 52.92082 | 6.88217 | 31851 ft | 431 kts | 242° |
| 2026-05-06 16:09 | 52.90777 | 6.83827 | 32243 ft | 429 kts | 242° |
| 2026-05-06 16:09 | 52.89459 | 6.79394 | 32621 ft | 428 kts | 242° |
| 2026-05-06 16:10 | 52.88146 | 6.74970 | 32987 ft | 427 kts | 242° |
| 2026-05-06 16:10 | 52.86837 | 6.70559 | 33363 ft | 426 kts | 242° |
| 2026-05-06 16:10 | 52.85528 | 6.66162 | 33716 ft | 426 kts | 242° |
| 2026-05-06 16:10 | 52.84218 | 6.61776 | 34060 ft | 425 kts | 242° |
| 2026-05-06 16:11 | 52.82902 | 6.57387 | 34349 ft | 424 kts | 242° |
| 2026-05-06 16:11 | 52.81589 | 6.53027 | 34652 ft | 424 kts | 242° |
| 2026-05-06 16:11 | 52.80273 | 6.48674 | 34924 ft | 423 kts | 242° |
| 2026-05-06 16:11 | 52.78958 | 6.44321 | 35189 ft | 423 kts | 242° |
| 2026-05-06 16:12 | 52.77647 | 6.39981 | 35451 ft | 422 kts | 242° |
| 2026-05-06 16:12 | 52.76336 | 6.35642 | 35706 ft | 422 kts | 242° |
| 2026-05-06 16:12 | 52.75023 | 6.31312 | 35870 ft | 422 kts | 242° |
| 2026-05-06 16:12 | 52.73711 | 6.27005 | 35902 ft | 418 kts | 242° |
| 2026-05-06 16:13 | 52.71107 | 6.18464 | 35899 ft | 416 kts | 242° |
| 2026-05-06 16:13 | 52.68510 | 6.09955 | 35901 ft | 416 kts | 242° |
| 2026-05-06 16:14 | 52.65904 | 6.01444 | 35902 ft | 416 kts | 242° |
| 2026-05-06 16:14 | 52.63287 | 5.92955 | 35904 ft | 416 kts | 242° |
| 2026-05-06 16:15 | 52.60665 | 5.84463 | 35902 ft | 416 kts | 242° |
| 2026-05-06 16:15 | 52.58043 | 5.75997 | 35907 ft | 416 kts | 242° |
| 2026-05-06 16:16 | 52.55404 | 5.67519 | 35908 ft | 416 kts | 242° |
| 2026-05-06 16:16 | 52.52781 | 5.59125 | 35912 ft | 416 kts | 242° |
| 2026-05-06 16:17 | 52.50134 | 5.50682 | 35912 ft | 416 kts | 242° |
| 2026-05-06 16:17 | 52.47480 | 5.42240 | 35911 ft | 416 kts | 242° |
| 2026-05-06 16:18 | 52.44841 | 5.33871 | 35908 ft | 416 kts | 242° |
| 2026-05-06 16:18 | 52.42175 | 5.25423 | 35905 ft | 416 kts | 242° |
| 2026-05-06 16:19 | 52.39504 | 5.17020 | 35902 ft | 416 kts | 242° |
| 2026-05-06 16:19 | 52.36824 | 5.08620 | 35903 ft | 416 kts | 242° |
| 2026-05-06 16:20 | 52.34593 | 5.01644 | 35903 ft | 416 kts | 241° |
| 2026-05-06 16:20 | 52.31898 | 4.93258 | 35910 ft | 417 kts | 241° |
| 2026-05-06 16:21 | 52.29202 | 4.84880 | 35910 ft | 417 kts | 241° |
| 2026-05-06 16:21 | 52.26494 | 4.76496 | 35919 ft | 417 kts | 241° |
| 2026-05-06 16:22 | 52.23780 | 4.68124 | 35919 ft | 417 kts | 241° |
| 2026-05-06 16:22 | 52.21061 | 4.59757 | 35914 ft | 417 kts | 241° |
| 2026-05-06 16:23 | 52.18346 | 4.51416 | 35914 ft | 417 kts | 241° |
| 2026-05-06 16:23 | 52.15613 | 4.43074 | 35904 ft | 417 kts | 241° |
| 2026-05-06 16:24 | 52.12878 | 4.34746 | 35910 ft | 417 kts | 241° |
| 2026-05-06 16:24 | 52.10151 | 4.26468 | 35916 ft | 417 kts | 241° |
| 2026-05-06 16:25 | 52.07407 | 4.18151 | 35910 ft | 417 kts | 240° |
| 2026-05-06 16:25 | 52.04655 | 4.09845 | 35913 ft | 417 kts | 240° |
| 2026-05-06 16:26 | 52.01896 | 4.01556 | 35912 ft | 417 kts | 240° |
| 2026-05-06 16:26 | 51.99129 | 3.93275 | 35919 ft | 417 kts | 240° |
| 2026-05-06 16:27 | 51.96364 | 3.85025 | 35914 ft | 416 kts | 240° |
| 2026-05-06 16:27 | 51.93591 | 3.76792 | 35917 ft | 416 kts | 240° |
| 2026-05-06 16:28 | 51.90813 | 3.68564 | 35916 ft | 416 kts | 240° |
| 2026-05-06 16:28 | 51.88030 | 3.60348 | 35914 ft | 416 kts | 240° |
| 2026-05-06 16:29 | 51.85247 | 3.52145 | 35915 ft | 416 kts | 240° |
| 2026-05-06 16:29 | 51.82457 | 3.43947 | 35924 ft | 416 kts | 240° |
| 2026-05-06 16:30 | 51.80126 | 3.37119 | 35929 ft | 417 kts | 240° |
| 2026-05-06 16:30 | 51.76862 | 3.27598 | 35935 ft | 417 kts | 239° |
| 2026-05-06 16:31 | 51.74110 | 3.19355 | 35937 ft | 418 kts | 245° |
| 2026-05-06 16:31 | 51.72682 | 3.10266 | 35943 ft | 421 kts | 261° |
| 2026-05-06 16:32 | 51.71896 | 3.00910 | 35943 ft | 421 kts | 260° |
| 2026-05-06 16:32 | 51.71075 | 2.91555 | 35946 ft | 422 kts | 260° |
| 2026-05-06 16:33 | 51.70247 | 2.82189 | 35946 ft | 422 kts | 260° |
| 2026-05-06 16:34 | 51.68995 | 2.68140 | 35957 ft | 423 kts | 260° |
| 2026-05-06 16:34 | 51.68151 | 2.58746 | 35941 ft | 424 kts | 260° |
| 2026-05-06 16:35 | 51.67297 | 2.49317 | 35936 ft | 426 kts | 260° |
| 2026-05-06 16:35 | 51.66440 | 2.39847 | 35939 ft | 427 kts | 260° |
| 2026-05-06 16:36 | 51.65579 | 2.30427 | 35947 ft | 428 kts | 260° |
| 2026-05-06 16:36 | 51.64689 | 2.20938 | 35950 ft | 429 kts | 260° |
| 2026-05-06 16:37 | 51.63795 | 2.11439 | 35951 ft | 429 kts | 260° |
| 2026-05-06 16:37 | 51.62907 | 2.01943 | 35955 ft | 429 kts | 260° |
| 2026-05-06 16:38 | 51.62030 | 1.92431 | 35960 ft | 430 kts | 260° |
| 2026-05-06 16:38 | 51.60481 | 1.83223 | 35961 ft | 426 kts | 241° |
| 2026-05-06 16:38 | 51.58845 | 1.79263 | 35959 ft | 425 kts | 229° |
| 2026-05-06 16:39 | 51.56890 | 1.75703 | 35955 ft | 425 kts | 228° |
| 2026-05-06 16:39 | 51.52965 | 1.68585 | 35951 ft | 426 kts | 228° |
| 2026-05-06 16:40 | 51.49041 | 1.61458 | 35953 ft | 426 kts | 228° |
| 2026-05-06 16:40 | 51.45091 | 1.54360 | 35950 ft | 427 kts | 228° |
| 2026-05-06 16:41 | 51.41125 | 1.47267 | 35951 ft | 427 kts | 228° |